Time;durP1;ratioP1;P1;durP2;ratioP2;P2;SDS_P1;SDS_P2;PMS_P1;PMS_P2;Temp;Humidity;BMP_temperature;BMP_pressure;BME280_temperature;BME280_humidity;BME280_pressure;Samples;Min_cycle;Max_cycle;Signal;HPM_P1;HPM_P2
2020/12/21 00:01:57;;;;;;;5.88;1.90;;;23.70;82.10;;;;;;5115439;28;20048;-62
2020/12/21 00:04:24;;;;;;;3.95;1.70;;;23.80;82.00;;;;;;5097408;28;20323;-60
2020/12/21 00:06:59;;;;;;;5.22;2.05;;;23.80;81.60;;;;;;5096324;28;20051;-59
2020/12/21 00:09:27;;;;;;;3.70;1.85;;;23.90;81.50;;;;;;5115103;28;20024;-60
2020/12/21 00:11:54;;;;;;;5.18;2.30;;;23.80;81.40;;;;;;5115454;28;20015;-63
2020/12/21 00:14:22;;;;;;;7.28;2.10;;;23.80;81.60;;;;;;5115612;28;20031;-64
2020/12/21 00:16:51;;;;;;;4.78;1.92;;;23.90;81.70;;;;;;5115050;28;20126;-64
2020/12/21 00:19:20;;;;;;;13.20;2.72;;;23.90;81.40;;;;;;5115119;28;20050;-64
2020/12/21 00:21:52;;;;;;;7.55;2.08;;;23.90;81.30;;;;;;5114926;28;20034;-56
2020/12/21 00:24:23;;;;;;;4.20;1.60;;;23.90;81.70;;;;;;5115418;28;20154;-60
2020/12/21 00:26:52;;;;;;;3.97;2.13;;;23.90;81.20;;;;;;5114669;28;20470;-63
2020/12/21 00:29:20;;;;;;;5.22;1.73;;;23.90;81.10;;;;;;5114745;28;20114;-63
2020/12/21 00:31:49;;;;;;;5.00;1.58;;;23.90;81.40;;;;;;5114826;28;20110;-62
2020/12/21 00:34:17;;;;;;;4.15;1.90;;;23.90;81.30;;;;;;5114395;28;20020;-60
2020/12/21 00:36:51;;;;;;;4.60;1.98;;;23.90;81.30;;;;;;5114289;28;20426;-62
2020/12/21 00:39:19;;;;;;;4.68;2.00;;;23.90;81.90;;;;;;5115206;28;20031;-63
2020/12/21 00:41:50;;;;;;;5.15;2.22;;;23.90;81.70;;;;;;5114736;28;20470;-59
2020/12/21 00:44:18;;;;;;;6.97;2.22;;;23.90;81.40;;;;;;5114552;28;20505;-60
2020/12/21 00:46:45;;;;;;;4.80;1.60;;;23.90;81.50;;;;;;5114572;28;20027;-62
2020/12/21 00:49:13;;;;;;;3.10;1.27;;;23.90;81.30;;;;;;5114550;28;20047;-60
2020/12/21 00:51:40;;;;;;;3.20;1.60;;;24.00;81.40;;;;;;5113917;28;20512;-61
2020/12/21 00:54:07;;;;;;;7.68;1.70;;;23.90;82.00;;;;;;5114688;28;20023;-65
2020/12/21 00:56:35;;;;;;;4.25;1.60;;;24.00;81.40;;;;;;5114910;28;20335;-63
2020/12/21 00:59:02;;;;;;;5.28;1.67;;;24.10;81.20;;;;;;5114718;28;20046;-62
2020/12/21 01:01:30;;;;;;;5.45;2.38;;;24.10;80.70;;;;;;5114365;28;20099;-61
2020/12/21 01:04:02;;;;;;;3.58;1.73;;;24.10;80.90;;;;;;5114590;28;20355;-61
2020/12/21 01:06:33;;;;;;;4.72;1.23;;;24.10;80.80;;;;;;5114450;28;20027;-66
2020/12/21 01:09:02;;;;;;;3.63;1.57;;;24.10;80.80;;;;;;5115102;28;20147;-65
2020/12/21 01:11:30;;;;;;;5.60;2.10;;;24.10;80.80;;;;;;5096153;28;20264;-63
2020/12/21 01:13:58;;;;;;;4.45;2.10;;;24.10;80.80;;;;;;5114779;28;20015;-67
2020/12/21 01:16:26;;;;;;;2.42;1.40;;;24.20;80.70;;;;;;5115076;28;20059;-66
2020/12/21 01:18:53;;;;;;;7.80;2.25;;;24.20;80.50;;;;;;5114157;28;20039;-59
2020/12/21 01:21:31;;;;;;;3.00;1.50;;;24.20;80.40;;;;;;5114058;28;20039;-61
2020/12/21 01:24:00;;;;;;;4.82;1.67;;;24.20;81.10;;;;;;5114153;28;20027;-61
2020/12/21 01:26:28;;;;;;;3.50;1.52;;;24.20;80.20;;;;;;5096040;28;20043;-62
2020/12/21 01:28:57;;;;;;;3.17;1.60;;;24.20;80.10;;;;;;5114129;28;20505;-63
2020/12/21 01:31:24;;;;;;;2.75;1.55;;;24.20;80.50;;;;;;5113692;28;20024;-64
2020/12/21 01:33:52;;;;;;;3.55;1.38;;;24.20;80.20;;;;;;5113484;28;20028;-59
2020/12/21 01:36:20;;;;;;;4.15;1.48;;;24.20;80.50;;;;;;5113649;28;20035;-65
2020/12/21 01:38:48;;;;;;;3.10;1.27;;;24.20;80.50;;;;;;5112801;28;20024;-64
2020/12/21 01:41:16;;;;;;;4.15;2.95;;;24.10;80.70;;;;;;5113405;28;20023;-67
2020/12/21 01:43:43;;;;;;;2.90;1.65;;;24.10;81.10;;;;;;5113361;28;20175;-65
2020/12/21 01:46:13;;;;;;;1.73;1.35;;;24.10;80.90;;;;;;5113687;28;20024;-65
2020/12/21 01:48:43;;;;;;;3.00;1.27;;;24.10;81.10;;;;;;5113629;28;20023;-64
2020/12/21 01:51:21;;;;;;;8.23;1.80;;;24.10;81.10;;;;;;5113394;28;20123;-65
2020/12/21 01:53:48;;;;;;;3.15;1.35;;;24.10;81.50;;;;;;5113575;28;20080;-67
2020/12/21 01:56:17;;;;;;;4.15;1.55;;;24.10;81.20;;;;;;5113692;28;20035;-63
2020/12/21 01:58:45;;;;;;;2.38;1.38;;;24.10;81.10;;;;;;5113626;28;20024;-64
2020/12/21 02:01:14;;;;;;;4.70;1.73;;;24.10;81.00;;;;;;5113639;28;20112;-64
2020/12/21 02:03:42;;;;;;;2.42;1.45;;;24.10;81.10;;;;;;5113147;28;20072;-64
2020/12/21 02:06:10;;;;;;;2.55;1.45;;;24.10;81.20;;;;;;5112957;28;20034;-64
2020/12/21 02:08:38;;;;;;;5.72;1.98;;;24.10;81.60;;;;;;5095354;28;20027;-64
2020/12/21 02:11:06;;;;;;;3.78;1.63;;;24.10;81.40;;;;;;5095243;28;20027;-62
2020/12/21 02:13:33;;;;;;;3.42;1.50;;;24.20;81.10;;;;;;5113313;28;20382;-65
2020/12/21 02:16:01;;;;;;;3.75;1.70;;;24.20;81.70;;;;;;5112935;28;20495;-66
2020/12/21 02:18:28;;;;;;;3.08;1.80;;;24.20;81.30;;;;;;5112575;28;20074;-64
2020/12/21 02:20:56;;;;;;;2.35;1.33;;;24.20;81.60;;;;;;5112831;28;20022;-66
2020/12/21 02:23:23;;;;;;;3.17;1.50;;;24.30;81.30;;;;;;5112759;28;20027;-64
2020/12/21 02:25:51;;;;;;;4.88;1.80;;;24.20;81.00;;;;;;5112947;28;20043;-65
2020/12/21 02:28:18;;;;;;;3.75;1.60;;;24.20;81.20;;;;;;5112782;28;20035;-65
2020/12/21 02:30:47;;;;;;;3.55;1.75;;;24.20;81.10;;;;;;5112780;28;20023;-63
2020/12/21 02:33:14;;;;;;;3.10;1.23;;;24.20;81.20;;;;;;5112514;28;20446;-62
2020/12/21 02:35:42;;;;;;;3.88;1.23;;;24.20;81.30;;;;;;5112202;28;20028;-65
2020/12/21 02:38:09;;;;;;;4.57;1.73;;;24.20;81.80;;;;;;5112433;28;20639;-62
2020/12/21 02:40:37;;;;;;;2.53;1.50;;;24.10;81.50;;;;;;5112340;28;20062;-63
2020/12/21 02:43:05;;;;;;;3.17;1.60;;;24.20;81.90;;;;;;5112796;28;20049;-63
2020/12/21 02:45:32;;;;;;;3.35;1.65;;;24.10;81.80;;;;;;5112400;28;20028;-65
2020/12/21 02:47:59;;;;;;;5.60;1.90;;;24.10;81.80;;;;;;5112308;28;20039;-60
2020/12/21 02:50:27;;;;;;;2.33;1.13;;;24.10;82.20;;;;;;5112509;28;20058;-61
2020/12/21 02:52:54;;;;;;;2.97;1.35;;;24.10;82.10;;;;;;5112597;28;20403;-63
2020/12/21 02:55:21;;;;;;;3.58;1.83;;;24.00;82.00;;;;;;5112392;28;20062;-61
2020/12/21 02:57:49;;;;;;;3.63;1.65;;;24.00;82.10;;;;;;5112490;28;20044;-67
2020/12/21 03:00:16;;;;;;;2.78;1.52;;;24.00;82.50;;;;;;5112453;28;20107;-64
2020/12/21 03:02:44;;;;;;;3.40;1.30;;;23.90;82.80;;;;;;5112417;28;20027;-64
2020/12/21 03:05:11;;;;;;;4.35;1.55;;;23.90;83.00;;;;;;5111997;28;20031;-62
2020/12/21 03:07:38;;;;;;;2.67;1.20;;;23.90;83.10;;;;;;5112032;28;20031;-68
2020/12/21 03:10:06;;;;;;;4.95;1.40;;;23.90;83.10;;;;;;5112578;28;20027;-64
2020/12/21 03:12:33;;;;;;;4.70;1.58;;;23.90;83.10;;;;;;5112379;28;20024;-58
2020/12/21 03:15:00;;;;;;;3.45;1.70;;;23.90;83.20;;;;;;5112498;28;20024;-61
2020/12/21 03:17:28;;;;;;;4.65;1.92;;;23.80;83.10;;;;;;5111913;28;20046;-63
2020/12/21 03:19:55;;;;;;;4.45;1.63;;;23.90;83.60;;;;;;5111868;28;20052;-61
2020/12/21 03:22:22;;;;;;;4.28;1.73;;;23.80;83.40;;;;;;5112235;28;20019;-66
2020/12/21 03:24:50;;;;;;;5.47;2.05;;;23.80;83.60;;;;;;5112174;28;20019;-65
2020/12/21 03:27:19;;;;;;;3.67;1.67;;;23.80;83.90;;;;;;5112332;28;20343;-65
2020/12/21 03:29:46;;;;;;;2.30;1.40;;;23.80;83.80;;;;;;5111752;28;20020;-64
2020/12/21 03:32:13;;;;;;;2.90;1.55;;;23.80;84.20;;;;;;5112004;28;20512;-66
2020/12/21 03:34:41;;;;;;;4.43;1.60;;;23.80;83.60;;;;;;5111802;28;20032;-60
2020/12/21 03:37:08;;;;;;;5.53;1.80;;;23.70;83.70;;;;;;5112197;28;20035;-65
2020/12/21 03:39:35;;;;;;;2.78;1.75;;;23.70;84.60;;;;;;5112215;28;20051;-64
2020/12/21 03:42:03;;;;;;;4.00;1.58;;;23.70;83.80;;;;;;5111887;28;20151;-63
2020/12/21 03:44:31;;;;;;;2.90;1.60;;;23.70;83.70;;;;;;5093834;28;20065;-64
2020/12/21 03:46:58;;;;;;;2.60;1.23;;;23.70;84.50;;;;;;5111660;28;20035;-63
2020/12/21 03:49:27;;;;;;;3.17;1.27;;;23.60;83.80;;;;;;5111408;28;20036;-68
2020/12/21 03:51:54;;;;;;;2.60;1.35;;;23.70;84.10;;;;;;5111282;28;20051;-66
2020/12/21 03:54:22;;;;;;;2.00;1.02;;;23.70;84.20;;;;;;5111927;28;20027;-62
2020/12/21 03:56:50;;;;;;;4.68;1.48;;;23.60;84.00;;;;;;5093885;28;20035;-62
2020/12/21 03:59:17;;;;;;;2.03;1.20;;;23.60;83.90;;;;;;5111773;28;20541;-64
2020/12/21 04:01:44;;;;;;;2.50;1.42;;;23.60;83.90;;;;;;5113530;28;20095;-60
2020/12/21 04:04:12;;;;;;;4.03;1.52;;;23.60;84.70;;;;;;5115498;28;20351;-67
2020/12/21 04:06:40;;;;;;;4.13;1.35;;;23.60;84.10;;;;;;5114914;28;20030;-60
2020/12/21 04:09:07;;;;;;;2.85;1.98;;;23.60;84.30;;;;;;5115687;28;20026;-65
2020/12/21 04:11:34;;;;;;;3.50;1.35;;;23.60;84.20;;;;;;5115199;28;20023;-66
2020/12/21 04:14:02;;;;;;;2.53;1.48;;;23.60;84.30;;;;;;5115267;28;20024;-63
2020/12/21 04:16:29;;;;;;;1.98;1.15;;;23.50;84.30;;;;;;5096794;28;20436;-63
2020/12/21 04:18:56;;;;;;;3.85;1.52;;;23.60;84.40;;;;;;5114795;28;20078;-59
2020/12/21 04:21:24;;;;;;;1.70;0.95;;;23.50;84.80;;;;;;5114247;28;20034;-61
2020/12/21 04:23:51;;;;;;;2.22;1.25;;;23.50;84.90;;;;;;5115080;28;20024;-68
2020/12/21 04:26:19;;;;;;;2.97;1.30;;;23.50;84.80;;;;;;5114935;28;20024;-66
2020/12/21 04:28:48;;;;;;;2.58;1.13;;;23.50;84.90;;;;;;5114824;28;20027;-67
2020/12/21 04:31:16;;;;;;;2.13;1.10;;;23.40;85.10;;;;;;5111834;27;20039;-64
2020/12/21 04:33:44;;;;;;;2.22;1.13;;;23.40;85.00;;;;;;5114427;28;20073;-68
2020/12/21 04:36:14;;;;;;;2.72;1.42;;;23.40;85.10;;;;;;5114747;28;20110;-64
2020/12/21 04:38:43;;;;;;;1.63;1.20;;;23.40;85.10;;;;;;5114793;28;20038;-62
2020/12/21 04:41:11;;;;;;;1.27;0.80;;;23.40;85.30;;;;;;5096526;28;20046;-65
2020/12/21 04:43:39;;;;;;;1.52;1.02;;;23.40;85.40;;;;;;5096141;28;20059;-63
2020/12/21 04:46:08;;;;;;;2.35;1.30;;;23.40;85.60;;;;;;5114990;28;20396;-66
2020/12/21 04:48:41;;;;;;;2.83;1.50;;;23.30;85.60;;;;;;5114687;28;20339;-63
2020/12/21 04:51:09;;;;;;;2.92;1.00;;;23.30;85.90;;;;;;5114977;28;20421;-65
2020/12/21 04:53:40;;;;;;;5.50;1.48;;;23.30;85.80;;;;;;5114494;28;20409;-66
2020/12/21 04:56:08;;;;;;;2.58;1.25;;;23.30;85.90;;;;;;5114503;28;20551;-65
2020/12/21 04:58:35;;;;;;;2.90;1.42;;;23.30;85.90;;;;;;5114770;28;20394;-62
2020/12/21 05:01:02;;;;;;;2.58;1.15;;;23.30;86.00;;;;;;5113871;28;20015;-66
2020/12/21 05:03:30;;;;;;;2.45;1.45;;;23.20;86.00;;;;;;5095671;28;20136;-66
2020/12/21 05:06:05;;;;;;;3.28;1.40;;;23.20;86.10;;;;;;5114141;28;20054;-66
2020/12/21 05:08:32;;;;;;;2.45;1.50;;;23.20;86.20;;;;;;5114329;28;20032;-64
2020/12/21 05:11:02;;;;;;;1.67;1.15;;;23.20;86.40;;;;;;5113880;28;20016;-65
2020/12/21 05:13:31;;;;;;;3.10;1.45;;;23.20;86.40;;;;;;5112734;28;20114;-65
2020/12/21 05:16:00;;;;;;;2.28;1.15;;;23.20;86.50;;;;;;5114121;28;20618;-69
2020/12/21 05:18:34;;;;;;;4.65;1.30;;;23.10;86.50;;;;;;5114098;28;20048;-63
2020/12/21 05:21:10;;;;;;;4.30;1.40;;;23.10;86.60;;;;;;5113900;28;20027;-63
2020/12/21 05:23:39;;;;;;;3.45;1.55;;;23.10;86.70;;;;;;5113799;28;20031;-66
2020/12/21 05:26:15;;;;;;;2.25;1.45;;;23.10;86.70;;;;;;5113384;28;20080;-65
2020/12/21 05:28:43;;;;;;;2.60;1.33;;;23.10;86.70;;;;;;5113768;28;20092;-65
2020/12/21 05:31:11;;;;;;;3.95;1.50;;;23.00;86.80;;;;;;5113801;28;20111;-68
2020/12/21 05:33:42;;;;;;;4.68;1.58;;;23.00;86.80;;;;;;5113619;28;20023;-65
2020/12/21 05:36:12;;;;;;;3.30;1.42;;;23.00;86.80;;;;;;5113755;28;20035;-66
2020/12/21 05:38:41;;;;;;;3.33;1.60;;;23.00;86.80;;;;;;5114001;28;20031;-61
2020/12/21 05:41:17;;;;;;;3.42;1.33;;;23.00;86.90;;;;;;5113610;28;20427;-64
2020/12/21 05:43:45;;;;;;;4.22;1.45;;;23.00;86.90;;;;;;5113325;28;20471;-64
2020/12/21 05:46:23;;;;;;;2.10;1.10;;;23.00;87.00;;;;;;5113465;28;20031;-62
2020/12/21 05:48:54;;;;;;;4.38;1.92;;;23.00;86.90;;;;;;5113585;28;20623;-63
2020/12/21 05:51:27;;;;;;;1.98;1.25;;;23.00;87.00;;;;;;5113970;28;20062;-64
2020/12/21 05:53:56;;;;;;;1.88;1.05;;;23.00;87.00;;;;;;5113357;28;20489;-62
2020/12/21 05:56:26;;;;;;;2.53;1.40;;;22.90;87.00;;;;;;5112624;28;20059;-61
2020/12/21 05:58:55;;;;;;;2.05;1.10;;;23.00;87.10;;;;;;5113008;28;20058;-62
2020/12/21 06:01:23;;;;;;;4.13;1.45;;;22.90;87.10;;;;;;5113359;28;20024;-61
2020/12/21 06:03:54;;;;;;;3.65;1.35;;;22.90;87.10;;;;;;5113222;28;20027;-61
2020/12/21 06:06:33;;;;;;;4.13;1.25;;;22.90;87.10;;;;;;5113228;28;20039;-62
2020/12/21 06:09:03;;;;;;;1.95;1.15;;;22.90;87.10;;;;;;5112979;28;20027;-65
2020/12/21 06:11:35;;;;;;;3.28;1.63;;;22.90;87.20;;;;;;5112501;28;20076;-58
2020/12/21 06:14:08;;;;;;;2.75;1.33;;;22.90;87.20;;;;;;5113102;28;20027;-62
2020/12/21 06:16:39;;;;;;;3.80;1.40;;;22.90;87.20;;;;;;5112992;28;20109;-63
2020/12/21 06:19:11;;;;;;;5.55;1.42;;;22.90;87.20;;;;;;5112949;28;20483;-63
2020/12/21 06:21:43;;;;;;;2.05;1.20;;;22.90;87.20;;;;;;5112134;28;20049;-65
2020/12/21 06:24:17;;;;;;;2.40;1.13;;;22.90;87.20;;;;;;5112280;28;20474;-63
2020/12/21 06:26:45;;;;;;;2.95;1.45;;;22.90;87.20;;;;;;5112892;28;20408;-62
2020/12/21 06:29:17;;;;;;;3.17;1.20;;;22.90;87.10;;;;;;5112895;28;20023;-60
2020/12/21 06:31:49;;;;;;;3.47;1.33;;;22.90;87.10;;;;;;5112612;28;20023;-61
2020/12/21 06:34:30;;;;;;;4.55;1.50;;;22.90;87.10;;;;;;5112687;28;20062;-62
2020/12/21 06:37:08;;;;;;;3.15;1.33;;;22.90;87.10;;;;;;5112669;28;20429;-59
2020/12/21 06:39:37;;;;;;;2.50;1.20;;;22.90;87.10;;;;;;5112365;28;20323;-66
2020/12/21 06:42:11;;;;;;;1.85;1.30;;;22.90;87.10;;;;;;5111841;28;20038;-64
2020/12/21 06:44:40;;;;;;;2.72;1.30;;;22.90;87.10;;;;;;5112756;28;20372;-67
2020/12/21 06:47:09;;;;;;;2.33;1.15;;;22.90;87.20;;;;;;5112103;28;20107;-60
2020/12/21 06:49:37;;;;;;;3.10;1.40;;;22.90;87.20;;;;;;5111939;28;20028;-65
2020/12/21 06:52:05;;;;;;;2.65;1.30;;;22.90;87.30;;;;;;5112053;28;20381;-61
2020/12/21 06:54:32;;;;;;;3.50;1.20;;;22.90;87.30;;;;;;5112359;28;20031;-62
2020/12/21 06:57:00;;;;;;;2.75;1.48;;;22.90;87.30;;;;;;5093705;28;20035;-62
2020/12/21 06:59:30;;;;;;;2.50;1.05;;;22.90;87.30;;;;;;5111472;28;20054;-65
2020/12/21 07:01:57;;;;;;;2.22;1.08;;;22.90;87.30;;;;;;5111981;28;20098;-61
2020/12/21 07:04:29;;;;;;;4.03;1.30;;;22.90;87.30;;;;;;5112009;28;20023;-67
2020/12/21 07:07:00;;;;;;;3.00;1.30;;;22.90;87.30;;;;;;5093815;28;20055;-66
2020/12/21 07:09:30;;;;;;;2.75;1.40;;;22.90;87.30;;;;;;5111814;28;20066;-66
2020/12/21 07:12:02;;;;;;;3.42;1.40;;;22.80;87.20;;;;;;5112339;28;20161;-65
2020/12/21 07:14:30;;;;;;;4.00;1.65;;;22.90;87.30;;;;;;5094070;28;20028;-65
2020/12/21 07:17:09;;;;;;;2.28;1.45;;;22.80;87.20;;;;;;5112180;28;20092;-62
2020/12/21 07:19:38;;;;;;;2.13;1.38;;;22.80;87.20;;;;;;5093406;28;20505;-64
2020/12/21 07:22:09;;;;;;;2.90;1.48;;;22.80;87.30;;;;;;5112427;28;20186;-67
2020/12/21 07:24:38;;;;;;;2.57;1.13;;;22.80;87.40;;;;;;5112208;28;20020;-67
2020/12/21 07:27:06;;;;;;;3.42;1.60;;;22.80;87.40;;;;;;5112757;28;20159;-65
2020/12/21 07:29:43;;;;;;;3.25;1.40;;;22.80;87.40;;;;;;5111984;28;20039;-64
2020/12/21 07:32:11;;;;;;;2.60;1.23;;;22.80;87.40;;;;;;5124262;28;20484;-65
2020/12/21 07:34:39;;;;;;;2.03;1.15;;;22.80;87.40;;;;;;5132619;27;20409;-62
2020/12/21 07:37:11;;;;;;;2.17;1.33;;;22.70;87.40;;;;;;5135523;27;20082;-64
2020/12/21 07:39:38;;;;;;;2.17;1.33;;;22.70;87.40;;;;;;5136526;27;20114;-61
2020/12/21 07:42:12;;;;;;;4.63;1.27;;;22.70;87.40;;;;;;5136702;27;20031;-66
2020/12/21 07:44:49;;;;;;;1.02;0.85;;;22.80;87.50;;;;;;5136389;27;20049;-65
2020/12/21 07:47:28;;;;;;;3.70;1.08;;;22.70;87.40;;;;;;5136865;27;20030;-65
2020/12/21 07:49:57;;;;;;;1.92;1.08;;;22.70;87.50;;;;;;5136289;27;20026;-67
2020/12/21 07:52:25;;;;;;;1.48;1.15;;;22.70;87.50;;;;;;5136576;27;20055;-65
2020/12/21 07:54:52;;;;;;;2.22;1.10;;;22.70;88.10;;;;;;5136730;27;20074;-65
2020/12/21 07:57:20;;;;;;;2.47;1.10;;;22.70;87.50;;;;;;5136018;27;20035;-62
2020/12/21 07:59:57;;;;;;;2.08;1.25;;;22.70;87.50;;;;;;5136101;27;20030;-60
2020/12/21 08:02:26;;;;;;;2.00;1.05;;;22.70;87.50;;;;;;5118031;27;20019;-60
2020/12/21 08:04:54;;;;;;;2.15;1.02;;;22.70;87.50;;;;;;5117922;27;20059;-66
2020/12/21 08:07:28;;;;;;;3.95;1.60;;;22.70;87.60;;;;;;5136797;27;20124;-59
2020/12/21 08:09:56;;;;;;;2.20;1.00;;;22.60;87.50;;;;;;5136273;27;20481;-60
2020/12/21 08:12:23;;;;;;;2.05;0.90;;;22.60;87.60;;;;;;5136151;27;20027;-58
2020/12/21 08:15:03;;;;;;;1.73;1.13;;;22.60;87.60;;;;;;5136020;27;20507;-56
2020/12/21 08:17:32;;;;;;;3.70;1.48;;;22.60;87.60;;;;;;5135427;27;20059;-64
2020/12/21 08:20:05;;;;;;;1.52;1.10;;;22.60;87.70;;;;;;5135457;27;20532;-61
2020/12/21 08:22:33;;;;;;;2.28;1.30;;;22.60;87.70;;;;;;5135755;27;20035;-63
2020/12/21 08:25:09;;;;;;;3.10;1.20;;;22.60;87.80;;;;;;5135654;27;20031;-64
2020/12/21 08:27:44;;;;;;;2.05;1.20;;;22.60;87.80;;;;;;5135515;27;20079;-63
2020/12/21 08:30:17;;;;;;;3.08;1.42;;;22.50;87.80;;;;;;5135726;27;20377;-60
2020/12/21 08:32:44;;;;;;;1.65;1.25;;;22.50;87.80;;;;;;5135719;27;20020;-62
2020/12/21 08:35:12;;;;;;;2.15;1.33;;;22.50;87.90;;;;;;5135581;27;20024;-63
2020/12/21 08:37:40;;;;;;;1.40;1.08;;;22.50;87.90;;;;;;5135414;27;20027;-62
2020/12/21 08:40:12;;;;;;;1.98;0.98;;;22.50;88.00;;;;;;5135222;27;20026;-59
2020/12/21 08:42:40;;;;;;;2.40;1.50;;;22.50;88.00;;;;;;5116984;27;20385;-61
2020/12/21 08:45:10;;;;;;;1.48;0.95;;;22.50;88.10;;;;;;5135497;27;20092;-64
2020/12/21 08:47:38;;;;;;;2.03;1.42;;;22.50;88.10;;;;;;5135248;27;20026;-63
2020/12/21 08:50:06;;;;;;;2.42;1.20;;;22.50;88.10;;;;;;5135602;27;20027;-62
2020/12/21 08:52:34;;;;;;;2.38;1.10;;;22.40;88.00;;;;;;5135217;27;20117;-64
2020/12/21 08:55:01;;;;;;;2.85;1.20;;;22.50;88.10;;;;;;5134875;27;20031;-65
2020/12/21 08:57:28;;;;;;;3.28;1.10;;;22.40;88.10;;;;;;5134938;27;20083;-65
2020/12/21 08:59:55;;;;;;;2.22;1.20;;;22.40;88.20;;;;;;5135583;27;20019;-65
2020/12/21 09:02:23;;;;;;;2.35;1.38;;;22.40;88.20;;;;;;5135464;27;20023;-64
2020/12/21 09:04:50;;;;;;;1.90;1.05;;;22.40;88.20;;;;;;5135442;27;20019;-60
2020/12/21 09:07:18;;;;;;;1.88;1.13;;;22.40;88.20;;;;;;5135306;27;20028;-64
2020/12/21 09:09:45;;;;;;;1.42;1.05;;;22.40;88.30;;;;;;5134946;27;20019;-66
2020/12/21 09:12:12;;;;;;;3.33;1.67;;;22.40;88.40;;;;;;5135207;27;20028;-66
2020/12/21 09:14:39;;;;;;;2.22;1.10;;;22.30;88.30;;;;;;5135433;27;20188;-64
2020/12/21 09:17:07;;;;;;;1.63;1.25;;;22.30;88.30;;;;;;5135025;27;20356;-66
2020/12/21 09:19:34;;;;;;;2.92;1.15;;;22.30;88.40;;;;;;5134547;27;20091;-66
2020/12/21 09:22:02;;;;;;;2.85;1.17;;;22.30;88.40;;;;;;5134859;27;20031;-65
2020/12/21 09:24:30;;;;;;;2.30;1.20;;;22.30;88.50;;;;;;5134904;27;20023;-62
2020/12/21 09:26:57;;;;;;;2.33;1.30;;;22.30;88.50;;;;;;5134459;27;20482;-60
2020/12/21 09:29:27;;;;;;;1.40;1.00;;;22.30;88.50;;;;;;5134476;27;20058;-64
2020/12/21 09:31:55;;;;;;;2.45;1.27;;;22.30;88.50;;;;;;5134465;27;20015;-64
2020/12/21 09:34:22;;;;;;;2.08;1.17;;;22.20;88.60;;;;;;5134259;27;20025;-65
2020/12/21 09:36:50;;;;;;;1.80;1.08;;;22.20;88.60;;;;;;5134615;27;20039;-62
2020/12/21 09:39:17;;;;;;;1.67;1.10;;;22.20;88.80;;;;;;5134437;27;20462;-64
2020/12/21 09:41:44;;;;;;;1.70;1.02;;;22.20;88.70;;;;;;5134121;27;20063;-66
2020/12/21 09:44:12;;;;;;;2.40;1.10;;;22.20;88.40;;;;;;5134298;27;20016;-63
2020/12/21 09:46:39;;;;;;;3.53;1.20;;;22.20;88.60;;;;;;5134147;27;20532;-62
2020/12/21 09:49:06;;;;;;;3.67;1.75;;;21.60;88.90;;;;;;5134309;27;20051;-61
2020/12/21 09:51:34;;;;;;;2.75;1.30;;;21.30;90.80;;;;;;5134207;27;20366;-63
2020/12/21 09:54:01;;;;;;;3.38;1.65;;;21.20;91.40;;;;;;5117086;27;20024;-59
2020/12/21 09:56:28;;;;;;;2.92;1.30;;;21.20;91.60;;;;;;5112083;28;20216;-54
2020/12/21 09:58:56;;;;;;;3.47;2.42;;;20.90;92.30;;;;;;5109242;28;20042;-63
2020/12/21 10:01:30;;;;;;;5.65;3.30;;;20.70;92.50;;;;;;5113003;28;20023;-60
2020/12/21 10:03:57;;;;;;;9.32;8.40;;;20.90;92.20;;;;;;5111392;28;20055;-52
2020/12/21 10:06:24;;;;;;;5.80;3.05;;;20.90;91.70;;;;;;5112691;28;20470;-59
2020/12/21 10:08:52;;;;;;;6.47;3.05;;;20.60;92.20;;;;;;5108184;28;20020;-59
2020/12/21 10:11:19;;;;;;;10.80;9.48;;;20.60;91.90;;;;;;5111806;28;20023;-61
2020/12/21 10:13:48;;;;;;;11.93;9.43;;;20.80;92.70;;;;;;5108574;28;20031;-62
2020/12/21 10:16:15;;;;;;;6.85;2.58;;;20.70;92.90;;;;;;5112461;28;20034;-64
2020/12/21 10:18:43;;;;;;;3.75;3.10;;;20.70;92.50;;;;;;5107740;28;20088;-63
2020/12/21 10:21:10;;;;;;;7.35;6.60;;;20.60;92.50;;;;;;5112643;28;20094;-62
2020/12/21 10:23:38;;;;;;;7.53;3.10;;;20.80;92.80;;;;;;5111709;28;20035;-65
2020/12/21 10:26:05;;;;;;;12.55;11.25;;;20.60;92.60;;;;;;5111207;28;20064;-63
2020/12/21 10:28:33;;;;;;;14.70;11.18;;;20.50;93.60;;;;;;5108443;28;20031;-62
2020/12/21 10:31:01;;;;;;;9.68;5.53;;;20.60;93.20;;;;;;5111424;28;20032;-62
2020/12/21 10:33:29;;;;;;;6.18;4.53;;;20.50;93.10;;;;;;5111186;28;20500;-58
2020/12/21 10:35:56;;;;;;;6.07;4.88;;;20.40;93.30;;;;;;5111810;28;20481;-67
2020/12/21 10:38:23;;;;;;;1.52;1.33;;;20.20;93.90;;;;;;5106657;28;20040;-61
2020/12/21 10:40:51;;;;;;;9.07;5.78;;;20.10;93.20;;;;;;5107625;28;20031;-63
2020/12/21 10:43:18;;;;;;;11.27;9.50;;;20.20;93.90;;;;;;5112190;28;20032;-62
2020/12/21 10:45:46;;;;;;;14.38;12.25;;;20.50;93.90;;;;;;5110401;28;20023;-61
2020/12/21 10:48:13;;;;;;;12.18;10.23;;;20.90;93.00;;;;;;5107836;27;20164;-62
2020/12/21 10:50:44;;;;;;;10.30;9.30;;;21.20;92.10;;;;;;5111969;28;20031;-63
2020/12/21 10:53:12;;;;;;;9.02;7.38;;;21.40;91.50;;;;;;5111622;28;20038;-55
2020/12/21 10:55:40;;;;;;;15.25;8.63;;;21.60;91.10;;;;;;5092342;28;20055;-66
2020/12/21 10:58:07;;;;;;;8.95;8.05;;;21.70;90.80;;;;;;5107650;28;20534;-65
2020/12/21 11:00:34;;;;;;;13.70;9.63;;;21.80;90.50;;;;;;5112061;28;20111;-62
2020/12/21 11:03:02;;;;;;;12.52;11.25;;;21.90;90.30;;;;;;5111987;28;20077;-57
2020/12/21 11:05:29;;;;;;;16.02;13.95;;;21.90;90.20;;;;;;5092051;28;20039;-53
2020/12/21 11:07:58;;;;;;;15.48;13.77;;;22.00;90.10;;;;;;5107224;28;20016;-58
2020/12/21 11:10:25;;;;;;;13.68;11.57;;;22.00;90.00;;;;;;5111999;28;20032;-52
2020/12/21 11:12:52;;;;;;;11.93;10.00;;;22.00;90.00;;;;;;5115910;28;20023;-54
2020/12/21 11:15:20;;;;;;;10.50;9.40;;;22.00;90.00;;;;;;5114566;28;20115;-52
2020/12/21 11:17:47;;;;;;;13.20;9.48;;;22.00;89.80;;;;;;5110254;28;20378;-52
2020/12/21 11:20:15;;;;;;;10.13;9.00;;;22.00;89.70;;;;;;5115965;28;20027;-58
2020/12/21 11:22:43;;;;;;;10.55;9.48;;;22.00;89.60;;;;;;5115570;28;20023;-49
2020/12/21 11:25:12;;;;;;;12.82;11.00;;;22.00;89.70;;;;;;5115006;28;20020;-62
2020/12/21 11:27:39;;;;;;;11.07;9.82;;;22.10;89.70;;;;;;5111407;28;20043;-63
2020/12/21 11:30:07;;;;;;;10.63;9.52;;;22.10;89.70;;;;;;5115595;28;20374;-58
2020/12/21 11:32:37;;;;;;;10.15;9.15;;;22.10;89.60;;;;;;5114804;28;20055;-60
2020/12/21 11:35:04;;;;;;;10.20;9.10;;;22.10;89.60;;;;;;5114661;28;20096;-58
2020/12/21 11:37:32;;;;;;;11.30;9.70;;;22.10;89.50;;;;;;5110604;28;20046;-58
2020/12/21 11:40:00;;;;;;;10.02;8.95;;;22.10;89.50;;;;;;5115434;28;20023;-54
2020/12/21 11:42:27;;;;;;;11.50;9.77;;;22.10;89.50;;;;;;5096946;28;20047;-51
2020/12/21 11:44:56;;;;;;;11.63;9.57;;;22.10;89.50;;;;;;5114612;28;20462;-60
2020/12/21 11:47:24;;;;;;;9.63;8.63;;;22.10;89.40;;;;;;5111244;28;20034;-51
2020/12/21 11:49:51;;;;;;;8.98;7.63;;;22.10;89.30;;;;;;5118282;27;20020;-61
2020/12/21 11:52:19;;;;;;;10.50;9.27;;;22.10;89.30;;;;;;5115129;28;20055;-54
2020/12/21 11:54:47;;;;;;;10.82;9.13;;;22.10;89.20;;;;;;5114154;28;20043;-56
2020/12/21 11:57:14;;;;;;;10.50;8.30;;;22.10;89.10;;;;;;5112388;28;20031;-52
2020/12/21 11:59:41;;;;;;;8.95;8.05;;;22.10;89.20;;;;;;5112330;28;20476;-60
2020/12/21 12:02:09;;;;;;;9.55;8.48;;;22.10;89.70;;;;;;5114672;28;20181;-62
2020/12/21 12:04:37;;;;;;;8.63;7.72;;;22.20;89.00;;;;;;5095793;28;20096;-53
2020/12/21 12:07:04;;;;;;;9.70;8.10;;;22.20;88.90;;;;;;5114260;28;20107;-56
2020/12/21 12:09:32;;;;;;;8.07;7.18;;;22.20;88.90;;;;;;5109920;28;20107;-63
2020/12/21 12:11:59;;;;;;;9.15;7.65;;;22.20;88.80;;;;;;5114947;28;20024;-61
2020/12/21 12:14:26;;;;;;;7.90;7.07;;;22.20;88.80;;;;;;5113905;28;20088;-59
2020/12/21 12:16:57;;;;;;;8.73;7.00;;;22.20;88.70;;;;;;5095960;28;20119;-60
2020/12/21 12:19:28;;;;;;;8.60;7.80;;;22.20;88.60;;;;;;5109444;28;20063;-62
2020/12/21 12:21:56;;;;;;;8.13;7.15;;;22.20;88.60;;;;;;5114015;28;20526;-59
2020/12/21 12:24:23;;;;;;;7.30;6.60;;;22.20;88.50;;;;;;5096378;28;20088;-62
2020/12/21 12:26:53;;;;;;;8.00;7.20;;;22.20;88.50;;;;;;5115789;28;20031;-65
2020/12/21 12:29:21;;;;;;;7.13;6.50;;;22.20;88.50;;;;;;5115740;28;20050;-63
2020/12/21 12:31:49;;;;;;;8.68;7.30;;;22.20;88.50;;;;;;5115655;28;20335;-64
2020/12/21 12:34:16;;;;;;;7.97;6.93;;;22.20;88.60;;;;;;5115731;28;20100;-63
2020/12/21 12:36:44;;;;;;;9.32;6.68;;;22.20;88.50;;;;;;5115643;28;20407;-63
2020/12/21 12:39:11;;;;;;;7.57;6.43;;;22.20;88.60;;;;;;5115285;28;20118;-63
2020/12/21 12:41:40;;;;;;;7.68;6.85;;;22.10;88.50;;;;;;5110253;27;20057;-65
2020/12/21 12:44:08;;;;;;;6.85;6.15;;;22.10;88.60;;;;;;5111386;28;20045;-64
2020/12/21 12:46:37;;;;;;;8.25;7.00;;;22.10;88.60;;;;;;5114027;28;20146;-64
2020/12/21 12:49:06;;;;;;;7.15;6.45;;;22.10;88.60;;;;;;5113511;28;20050;-63
2020/12/21 12:51:36;;;;;;;7.15;6.22;;;22.10;88.60;;;;;;5113087;28;20031;-64
2020/12/21 12:54:05;;;;;;;7.28;6.53;;;22.10;88.70;;;;;;5112827;27;20093;-62